sensor_id;sensor_type;location;lat;lon;timestamp;temperature;humidity
6421;DHT22;3243;50.958;7.012;2023-03-14T00:00:50;11.30;99.90
6421;DHT22;3243;50.958;7.012;2023-03-14T00:03:17;11.10;99.90
6421;DHT22;3243;50.958;7.012;2023-03-14T00:05:43;11.20;99.90
6421;DHT22;3243;50.958;7.012;2023-03-14T00:08:10;11.20;99.90
6421;DHT22;3243;50.958;7.012;2023-03-14T00:10:38;11.10;99.90
6421;DHT22;3243;50.958;7.012;2023-03-14T00:13:05;11.10;99.90
6421;DHT22;3243;50.958;7.012;2023-03-14T00:15:35;11.00;99.90
6421;DHT22;3243;50.958;7.012;2023-03-14T00:18:02;11.10;99.90
6421;DHT22;3243;50.958;7.012;2023-03-14T00:20:28;11.10;99.90
6421;DHT22;3243;50.958;7.012;2023-03-14T00:22:55;11.20;99.90
6421;DHT22;3243;50.958;7.012;2023-03-14T00:25:22;11.20;99.90
6421;DHT22;3243;50.958;7.012;2023-03-14T00:27:50;11.20;99.90
6421;DHT22;3243;50.958;7.012;2023-03-14T00:30:18;11.20;99.90
6421;DHT22;3243;50.958;7.012;2023-03-14T00:32:45;11.20;99.90
6421;DHT22;3243;50.958;7.012;2023-03-14T00:35:12;11.20;99.90
6421;DHT22;3243;50.958;7.012;2023-03-14T00:37:39;11.30;99.90
6421;DHT22;3243;50.958;7.012;2023-03-14T00:40:08;11.30;99.90
6421;DHT22;3243;50.958;7.012;2023-03-14T00:42:35;11.30;99.90
6421;DHT22;3243;50.958;7.012;2023-03-14T00:45:01;11.40;99.90
6421;DHT22;3243;50.958;7.012;2023-03-14T00:47:28;11.40;99.90
6421;DHT22;3243;50.958;7.012;2023-03-14T00:49:55;11.40;99.90
6421;DHT22;3243;50.958;7.012;2023-03-14T00:52:21;11.50;99.90
6421;DHT22;3243;50.958;7.012;2023-03-14T00:54:48;11.50;99.90
6421;DHT22;3243;50.958;7.012;2023-03-14T00:57:15;11.60;99.90
6421;DHT22;3243;50.958;7.012;2023-03-14T00:59:41;11.60;99.90
6421;DHT22;3243;50.958;7.012;2023-03-14T01:02:08;11.70;99.90
6421;DHT22;3243;50.958;7.012;2023-03-14T01:04:35;11.80;99.90
6421;DHT22;3243;50.958;7.012;2023-03-14T01:07:04;11.80;99.90
6421;DHT22;3243;50.958;7.012;2023-03-14T01:09:30;11.80;99.90
6421;DHT22;3243;50.958;7.012;2023-03-14T01:11:57;11.90;99.90
6421;DHT22;3243;50.958;7.012;2023-03-14T01:14:24;11.90;99.90
6421;DHT22;3243;50.958;7.012;2023-03-14T01:16:51;11.90;99.90
6421;DHT22;3243;50.958;7.012;2023-03-14T01:19:17;12.00;99.90
6421;DHT22;3243;50.958;7.012;2023-03-14T01:21:44;12.00;99.90
6421;DHT22;3243;50.958;7.012;2023-03-14T01:24:11;12.00;99.90
6421;DHT22;3243;50.958;7.012;2023-03-14T01:26:38;11.90;99.90
6421;DHT22;3243;50.958;7.012;2023-03-14T01:29:04;11.80;99.90
6421;DHT22;3243;50.958;7.012;2023-03-14T01:31:31;11.60;99.90
6421;DHT22;3243;50.958;7.012;2023-03-14T01:33:58;11.30;99.90
6421;DHT22;3243;50.958;7.012;2023-03-14T01:36:25;11.00;41.80
6421;DHT22;3243;50.958;7.012;2023-03-14T01:38:52;10.90;1.00
6421;DHT22;3243;50.958;7.012;2023-03-14T01:41:21;10.70;99.90
6421;DHT22;3243;50.958;7.012;2023-03-14T01:43:49;10.70;99.90
6421;DHT22;3243;50.958;7.012;2023-03-14T01:46:26;10.60;99.90
6421;DHT22;3243;50.958;7.012;2023-03-14T01:51:52;10.40;99.90
6421;DHT22;3243;50.958;7.012;2023-03-14T01:57:10;10.30;99.90
6421;DHT22;3243;50.958;7.012;2023-03-14T01:59:39;10.20;99.90
6421;DHT22;3243;50.958;7.012;2023-03-14T02:02:07;10.20;99.90
6421;DHT22;3243;50.958;7.012;2023-03-14T02:04:37;10.10;99.90
6421;DHT22;3243;50.958;7.012;2023-03-14T02:07:37;10.10;99.90
6421;DHT22;3243;50.958;7.012;2023-03-14T02:10:06;10.10;99.90
6421;DHT22;3243;50.958;7.012;2023-03-14T02:12:34;10.00;99.90
6421;DHT22;3243;50.958;7.012;2023-03-14T02:15:02;9.90;99.90
6421;DHT22;3243;50.958;7.012;2023-03-14T02:17:29;9.90;99.90
6421;DHT22;3243;50.958;7.012;2023-03-14T02:20:14;9.90;99.90
6421;DHT22;3243;50.958;7.012;2023-03-14T02:22:45;9.90;99.90
6421;DHT22;3243;50.958;7.012;2023-03-14T02:27:45;9.90;99.90
6421;DHT22;3243;50.958;7.012;2023-03-14T02:30:30;9.90;99.90
6421;DHT22;3243;50.958;7.012;2023-03-14T02:33:05;9.80;99.90
6421;DHT22;3243;50.958;7.012;2023-03-14T02:35:52;9.90;99.90
6421;DHT22;3243;50.958;7.012;2023-03-14T02:38:53;9.80;99.90
6421;DHT22;3243;50.958;7.012;2023-03-14T02:41:22;9.80;99.90
6421;DHT22;3243;50.958;7.012;2023-03-14T02:43:49;9.80;99.90
6421;DHT22;3243;50.958;7.012;2023-03-14T02:46:20;9.80;99.90
6421;DHT22;3243;50.958;7.012;2023-03-14T02:49:00;9.90;99.90
6421;DHT22;3243;50.958;7.012;2023-03-14T02:51:29;9.80;99.90
6421;DHT22;3243;50.958;7.012;2023-03-14T02:53:56;9.80;99.90
6421;DHT22;3243;50.958;7.012;2023-03-14T02:56:22;9.70;99.90
6421;DHT22;3243;50.958;7.012;2023-03-14T02:58:49;9.70;99.90
6421;DHT22;3243;50.958;7.012;2023-03-14T03:01:16;9.70;99.90
6421;DHT22;3243;50.958;7.012;2023-03-14T03:03:43;9.70;99.90
6421;DHT22;3243;50.958;7.012;2023-03-14T03:06:09;9.60;99.90
6421;DHT22;3243;50.958;7.012;2023-03-14T03:08:36;9.60;99.90
6421;DHT22;3243;50.958;7.012;2023-03-14T03:11:03;9.60;99.90
6421;DHT22;3243;50.958;7.012;2023-03-14T03:13:30;9.60;99.90
6421;DHT22;3243;50.958;7.012;2023-03-14T03:15:57;9.60;99.90
6421;DHT22;3243;50.958;7.012;2023-03-14T03:18:23;9.50;99.90
6421;DHT22;3243;50.958;7.012;2023-03-14T03:20:50;9.60;99.90
6421;DHT22;3243;50.958;7.012;2023-03-14T03:23:17;9.70;99.90
6421;DHT22;3243;50.958;7.012;2023-03-14T03:25:48;9.60;99.90
6421;DHT22;3243;50.958;7.012;2023-03-14T03:28:15;9.70;99.90
6421;DHT22;3243;50.958;7.012;2023-03-14T03:30:42;9.70;99.90
6421;DHT22;3243;50.958;7.012;2023-03-14T03:33:10;9.70;99.90
6421;DHT22;3243;50.958;7.012;2023-03-14T03:35:48;9.70;99.90
6421;DHT22;3243;50.958;7.012;2023-03-14T03:38:15;9.70;99.90
6421;DHT22;3243;50.958;7.012;2023-03-14T03:40:43;9.70;99.90
6421;DHT22;3243;50.958;7.012;2023-03-14T03:43:09;9.70;99.90
6421;DHT22;3243;50.958;7.012;2023-03-14T03:45:36;9.70;99.90
6421;DHT22;3243;50.958;7.012;2023-03-14T03:48:03;9.80;99.90
6421;DHT22;3243;50.958;7.012;2023-03-14T03:50:30;9.80;99.90
6421;DHT22;3243;50.958;7.012;2023-03-14T03:52:56;9.80;99.90
6421;DHT22;3243;50.958;7.012;2023-03-14T03:55:23;9.80;99.90
6421;DHT22;3243;50.958;7.012;2023-03-14T03:57:51;9.80;99.90
6421;DHT22;3243;50.958;7.012;2023-03-14T04:00:19;9.80;99.90
6421;DHT22;3243;50.958;7.012;2023-03-14T04:02:45;9.80;99.90
6421;DHT22;3243;50.958;7.012;2023-03-14T04:05:12;9.90;99.90
6421;DHT22;3243;50.958;7.012;2023-03-14T04:07:39;9.80;99.90
6421;DHT22;3243;50.958;7.012;2023-03-14T04:10:06;9.90;99.90
6421;DHT22;3243;50.958;7.012;2023-03-14T04:12:33;9.80;99.90
6421;DHT22;3243;50.958;7.012;2023-03-14T04:15:00;9.80;99.90
6421;DHT22;3243;50.958;7.012;2023-03-14T04:17:26;9.90;99.90
6421;DHT22;3243;50.958;7.012;2023-03-14T04:19:53;9.90;99.90
6421;DHT22;3243;50.958;7.012;2023-03-14T04:22:20;10.00;99.90
6421;DHT22;3243;50.958;7.012;2023-03-14T04:24:47;9.90;99.90
6421;DHT22;3243;50.958;7.012;2023-03-14T04:27:14;10.00;99.90
6421;DHT22;3243;50.958;7.012;2023-03-14T04:29:42;10.00;99.90
6421;DHT22;3243;50.958;7.012;2023-03-14T04:32:09;10.00;99.90
6421;DHT22;3243;50.958;7.012;2023-03-14T04:34:36;10.00;99.90
6421;DHT22;3243;50.958;7.012;2023-03-14T04:37:03;10.00;99.90
6421;DHT22;3243;50.958;7.012;2023-03-14T04:39:30;10.10;99.90
6421;DHT22;3243;50.958;7.012;2023-03-14T04:41:56;10.10;99.90
6421;DHT22;3243;50.958;7.012;2023-03-14T04:44:23;10.00;99.90
6421;DHT22;3243;50.958;7.012;2023-03-14T04:46:50;10.10;99.90
6421;DHT22;3243;50.958;7.012;2023-03-14T04:49:17;8.60;99.90
6421;DHT22;3243;50.958;7.012;2023-03-14T04:51:43;10.10;99.90
6421;DHT22;3243;50.958;7.012;2023-03-14T04:54:10;10.10;99.90
6421;DHT22;3243;50.958;7.012;2023-03-14T04:56:37;10.10;99.90
6421;DHT22;3243;50.958;7.012;2023-03-14T04:59:04;10.10;99.90
6421;DHT22;3243;50.958;7.012;2023-03-14T05:01:31;10.10;99.90
6421;DHT22;3243;50.958;7.012;2023-03-14T05:03:58;10.00;99.90
6421;DHT22;3243;50.958;7.012;2023-03-14T05:06:24;10.00;99.90
6421;DHT22;3243;50.958;7.012;2023-03-14T05:08:51;10.00;99.90
6421;DHT22;3243;50.958;7.012;2023-03-14T05:11:18;10.00;99.90
6421;DHT22;3243;50.958;7.012;2023-03-14T05:13:45;10.00;99.90
6421;DHT22;3243;50.958;7.012;2023-03-14T05:16:11;9.90;99.90
6421;DHT22;3243;50.958;7.012;2023-03-14T05:18:38;9.90;99.90
6421;DHT22;3243;50.958;7.012;2023-03-14T05:21:05;10.00;99.90
6421;DHT22;3243;50.958;7.012;2023-03-14T05:23:32;9.90;99.90
6421;DHT22;3243;50.958;7.012;2023-03-14T05:25:59;9.90;99.90
6421;DHT22;3243;50.958;7.012;2023-03-14T05:28:25;9.90;99.90
6421;DHT22;3243;50.958;7.012;2023-03-14T05:30:52;9.90;99.90
6421;DHT22;3243;50.958;7.012;2023-03-14T05:33:19;10.00;99.90
6421;DHT22;3243;50.958;7.012;2023-03-14T05:35:46;9.90;99.90
6421;DHT22;3243;50.958;7.012;2023-03-14T05:38:12;10.00;99.90
6421;DHT22;3243;50.958;7.012;2023-03-14T05:40:39;10.00;99.90
6421;DHT22;3243;50.958;7.012;2023-03-14T05:43:06;10.00;99.90
6421;DHT22;3243;50.958;7.012;2023-03-14T05:45:34;10.10;99.90
6421;DHT22;3243;50.958;7.012;2023-03-14T05:48:01;10.00;99.90
6421;DHT22;3243;50.958;7.012;2023-03-14T05:50:28;10.00;99.90
6421;DHT22;3243;50.958;7.012;2023-03-14T05:52:55;10.00;99.90
6421;DHT22;3243;50.958;7.012;2023-03-14T05:55:22;10.10;99.90
6421;DHT22;3243;50.958;7.012;2023-03-14T05:57:49;10.20;99.90
6421;DHT22;3243;50.958;7.012;2023-03-14T06:00:16;10.20;1.00
6421;DHT22;3243;50.958;7.012;2023-03-14T06:02:43;10.10;1.00
6421;DHT22;3243;50.958;7.012;2023-03-14T06:05:09;10.20;99.90
6421;DHT22;3243;50.958;7.012;2023-03-14T06:07:36;10.20;99.90
6421;DHT22;3243;50.958;7.012;2023-03-14T06:10:03;10.30;99.90
6421;DHT22;3243;50.958;7.012;2023-03-14T06:12:30;10.30;99.90
6421;DHT22;3243;50.958;7.012;2023-03-14T06:14:57;10.30;99.90
6421;DHT22;3243;50.958;7.012;2023-03-14T06:17:24;10.20;99.90
6421;DHT22;3243;50.958;7.012;2023-03-14T06:19:50;10.30;99.90
6421;DHT22;3243;50.958;7.012;2023-03-14T06:22:17;10.20;99.90
6421;DHT22;3243;50.958;7.012;2023-03-14T06:24:44;10.20;1.00
6421;DHT22;3243;50.958;7.012;2023-03-14T06:27:10;10.20;99.90
6421;DHT22;3243;50.958;7.012;2023-03-14T06:29:37;10.20;99.90
6421;DHT22;3243;50.958;7.012;2023-03-14T06:32:04;10.20;1.00
6421;DHT22;3243;50.958;7.012;2023-03-14T06:34:31;10.20;1.00
6421;DHT22;3243;50.958;7.012;2023-03-14T06:36:58;10.30;99.90
6421;DHT22;3243;50.958;7.012;2023-03-14T06:39:25;10.30;99.90
6421;DHT22;3243;50.958;7.012;2023-03-14T06:41:51;10.30;99.90
6421;DHT22;3243;50.958;7.012;2023-03-14T06:44:18;10.40;1.00
6421;DHT22;3243;50.958;7.012;2023-03-14T06:46:45;10.40;99.90
6421;DHT22;3243;50.958;7.012;2023-03-14T06:49:12;10.40;99.90
6421;DHT22;3243;50.958;7.012;2023-03-14T06:51:39;10.60;57.40
6421;DHT22;3243;50.958;7.012;2023-03-14T06:54:06;10.60;1.00
6421;DHT22;3243;50.958;7.012;2023-03-14T06:56:33;10.70;99.90
6421;DHT22;3243;50.958;7.012;2023-03-14T06:58:59;10.80;99.90
6421;DHT22;3243;50.958;7.012;2023-03-14T07:01:28;10.90;13.80
6421;DHT22;3243;50.958;7.012;2023-03-14T07:03:56;11.00;1.00
6421;DHT22;3243;50.958;7.012;2023-03-14T07:06:22;11.00;99.90
6421;DHT22;3243;50.958;7.012;2023-03-14T07:08:49;11.00;1.00
6421;DHT22;3243;50.958;7.012;2023-03-14T07:11:16;10.90;1.00
6421;DHT22;3243;50.958;7.012;2023-03-14T07:13:43;10.90;1.00
6421;DHT22;3243;50.958;7.012;2023-03-14T07:16:10;11.00;1.00
6421;DHT22;3243;50.958;7.012;2023-03-14T07:18:36;11.10;1.00
6421;DHT22;3243;50.958;7.012;2023-03-14T07:21:05;11.30;99.90
6421;DHT22;3243;50.958;7.012;2023-03-14T07:23:33;11.30;18.40
6421;DHT22;3243;50.958;7.012;2023-03-14T07:26:00;11.40;99.90
6421;DHT22;3243;50.958;7.012;2023-03-14T07:28:26;11.50;99.90
6421;DHT22;3243;50.958;7.012;2023-03-14T07:30:54;11.50;99.90
6421;DHT22;3243;50.958;7.012;2023-03-14T07:33:21;11.40;99.90
6421;DHT22;3243;50.958;7.012;2023-03-14T07:35:49;11.50;99.90
6421;DHT22;3243;50.958;7.012;2023-03-14T07:38:16;11.50;99.90
6421;DHT22;3243;50.958;7.012;2023-03-14T07:40:43;11.50;99.90
6421;DHT22;3243;50.958;7.012;2023-03-14T07:43:09;11.60;99.90
6421;DHT22;3243;50.958;7.012;2023-03-14T07:45:36;11.70;99.90
6421;DHT22;3243;50.958;7.012;2023-03-14T07:48:08;11.80;99.90
6421;DHT22;3243;50.958;7.012;2023-03-14T07:50:36;11.80;99.90
6421;DHT22;3243;50.958;7.012;2023-03-14T07:53:03;11.90;99.90
6421;DHT22;3243;50.958;7.012;2023-03-14T07:55:29;11.90;99.90
6421;DHT22;3243;50.958;7.012;2023-03-14T07:57:56;12.00;99.90
6421;DHT22;3243;50.958;7.012;2023-03-14T08:00:23;12.00;99.90
6421;DHT22;3243;50.958;7.012;2023-03-14T08:02:50;14.70;99.90
6421;DHT22;3243;50.958;7.012;2023-03-14T08:05:17;12.10;99.90
6421;DHT22;3243;50.958;7.012;2023-03-14T08:07:43;12.20;99.90
6421;DHT22;3243;50.958;7.012;2023-03-14T08:10:10;12.30;99.90
6421;DHT22;3243;50.958;7.012;2023-03-14T08:12:37;12.20;99.90
6421;DHT22;3243;50.958;7.012;2023-03-14T08:15:04;12.20;99.90
6421;DHT22;3243;50.958;7.012;2023-03-14T08:17:31;12.20;99.90
6421;DHT22;3243;50.958;7.012;2023-03-14T08:19:57;12.20;99.90
6421;DHT22;3243;50.958;7.012;2023-03-14T08:22:24;12.20;99.90
6421;DHT22;3243;50.958;7.012;2023-03-14T08:24:51;12.10;99.90
6421;DHT22;3243;50.958;7.012;2023-03-14T08:27:17;12.20;99.90
6421;DHT22;3243;50.958;7.012;2023-03-14T08:29:44;12.30;99.90
6421;DHT22;3243;50.958;7.012;2023-03-14T08:32:11;12.50;99.90
6421;DHT22;3243;50.958;7.012;2023-03-14T08:34:38;12.40;99.90
6421;DHT22;3243;50.958;7.012;2023-03-14T08:37:05;12.60;99.90
6421;DHT22;3243;50.958;7.012;2023-03-14T08:39:49;12.60;99.90
6421;DHT22;3243;50.958;7.012;2023-03-14T08:42:16;12.60;99.90
6421;DHT22;3243;50.958;7.012;2023-03-14T08:44:42;12.60;99.90
6421;DHT22;3243;50.958;7.012;2023-03-14T08:47:09;12.40;99.90
6421;DHT22;3243;50.958;7.012;2023-03-14T08:49:36;12.40;99.90
6421;DHT22;3243;50.958;7.012;2023-03-14T08:52:03;12.30;99.90
6421;DHT22;3243;50.958;7.012;2023-03-14T08:54:31;12.50;99.90
6421;DHT22;3243;50.958;7.012;2023-03-14T08:56:58;12.50;99.90
6421;DHT22;3243;50.958;7.012;2023-03-14T08:59:25;12.50;99.90
6421;DHT22;3243;50.958;7.012;2023-03-14T09:01:51;12.40;99.90
6421;DHT22;3243;50.958;7.012;2023-03-14T09:04:18;12.50;99.90
6421;DHT22;3243;50.958;7.012;2023-03-14T09:06:45;12.30;99.90
6421;DHT22;3243;50.958;7.012;2023-03-14T09:09:12;12.30;99.90
6421;DHT22;3243;50.958;7.012;2023-03-14T09:11:40;11.80;99.90
6421;DHT22;3243;50.958;7.012;2023-03-14T09:14:07;11.80;99.90
6421;DHT22;3243;50.958;7.012;2023-03-14T09:16:33;11.60;99.90
6421;DHT22;3243;50.958;7.012;2023-03-14T09:19:00;11.50;99.90
6421;DHT22;3243;50.958;7.012;2023-03-14T09:21:27;11.50;99.90
6421;DHT22;3243;50.958;7.012;2023-03-14T09:23:54;11.50;99.90
6421;DHT22;3243;50.958;7.012;2023-03-14T09:26:20;11.50;99.90
6421;DHT22;3243;50.958;7.012;2023-03-14T09:28:47;11.50;99.90
6421;DHT22;3243;50.958;7.012;2023-03-14T09:31:15;11.40;99.90
6421;DHT22;3243;50.958;7.012;2023-03-14T09:33:42;11.40;99.90
6421;DHT22;3243;50.958;7.012;2023-03-14T09:36:09;11.50;99.90
6421;DHT22;3243;50.958;7.012;2023-03-14T09:38:36;11.60;99.90
6421;DHT22;3243;50.958;7.012;2023-03-14T09:41:10;11.60;99.90
6421;DHT22;3243;50.958;7.012;2023-03-14T09:43:40;11.60;99.90
6421;DHT22;3243;50.958;7.012;2023-03-14T09:46:09;11.00;99.90
6421;DHT22;3243;50.958;7.012;2023-03-14T09:48:37;10.80;99.90
6421;DHT22;3243;50.958;7.012;2023-03-14T09:51:10;10.80;99.90
6421;DHT22;3243;50.958;7.012;2023-03-14T09:53:44;10.50;99.90
6421;DHT22;3243;50.958;7.012;2023-03-14T09:56:18;9.80;99.90
6421;DHT22;3243;50.958;7.012;2023-03-14T09:58:51;9.80;99.90
6421;DHT22;3243;50.958;7.012;2023-03-14T10:01:24;9.70;99.90
6421;DHT22;3243;50.958;7.012;2023-03-14T10:03:55;9.40;99.90
6421;DHT22;3243;50.958;7.012;2023-03-14T10:06:26;9.40;99.90
6421;DHT22;3243;50.958;7.012;2023-03-14T10:08:54;9.40;99.90
6421;DHT22;3243;50.958;7.012;2023-03-14T10:11:22;9.40;99.90
6421;DHT22;3243;50.958;7.012;2023-03-14T10:14:02;9.30;99.90
6421;DHT22;3243;50.958;7.012;2023-03-14T10:16:33;9.30;99.90
6421;DHT22;3243;50.958;7.012;2023-03-14T10:19:09;9.40;99.90
6421;DHT22;3243;50.958;7.012;2023-03-14T10:21:42;9.30;99.90
6421;DHT22;3243;50.958;7.012;2023-03-14T10:24:30;9.30;99.90
6421;DHT22;3243;50.958;7.012;2023-03-14T10:27:21;9.20;99.90
6421;DHT22;3243;50.958;7.012;2023-03-14T10:29:53;9.10;99.90
6421;DHT22;3243;50.958;7.012;2023-03-14T10:32:35;8.90;99.90
6421;DHT22;3243;50.958;7.012;2023-03-14T10:35:22;8.80;99.90
6421;DHT22;3243;50.958;7.012;2023-03-14T10:40:19;8.70;99.90
6421;DHT22;3243;50.958;7.012;2023-03-14T10:45:34;8.60;99.90
6421;DHT22;3243;50.958;7.012;2023-03-14T10:48:22;8.60;99.90
6421;DHT22;3243;50.958;7.012;2023-03-14T10:53:23;8.60;99.90
6421;DHT22;3243;50.958;7.012;2023-03-14T10:55:55;8.60;99.90
6421;DHT22;3243;50.958;7.012;2023-03-14T10:58:29;8.70;99.90
6421;DHT22;3243;50.958;7.012;2023-03-14T11:06:44;8.90;99.90
6421;DHT22;3243;50.958;7.012;2023-03-14T11:12:27;9.40;99.90
6421;DHT22;3243;50.958;7.012;2023-03-14T11:15:20;9.40;99.90
6421;DHT22;3243;50.958;7.012;2023-03-14T11:20:40;9.50;99.90
6421;DHT22;3243;50.958;7.012;2023-03-14T11:23:27;9.80;99.90
6421;DHT22;3243;50.958;7.012;2023-03-14T11:26:44;9.80;99.90
6421;DHT22;3243;50.958;7.012;2023-03-14T11:28:58;9.70;99.90
6421;DHT22;3243;50.958;7.012;2023-03-14T11:31:29;9.70;99.90
6421;DHT22;3243;50.958;7.012;2023-03-14T11:37:06;9.70;99.90
6421;DHT22;3243;50.958;7.012;2023-03-14T11:39:41;10.00;99.90
6421;DHT22;3243;50.958;7.012;2023-03-14T11:42:12;9.70;99.90
6421;DHT22;3243;50.958;7.012;2023-03-14T11:44:42;9.30;99.90
6421;DHT22;3243;50.958;7.012;2023-03-14T11:50:02;8.90;99.90
6421;DHT22;3243;50.958;7.012;2023-03-14T11:52:34;8.50;99.90
6421;DHT22;3243;50.958;7.012;2023-03-14T11:55:33;8.50;99.90
6421;DHT22;3243;50.958;7.012;2023-03-14T11:58:12;10.30;99.90
6421;DHT22;3243;50.958;7.012;2023-03-14T12:00:42;8.30;99.90
6421;DHT22;3243;50.958;7.012;2023-03-14T12:03:28;8.20;99.90
6421;DHT22;3243;50.958;7.012;2023-03-14T12:06:20;8.30;99.90
6421;DHT22;3243;50.958;7.012;2023-03-14T12:08:55;8.30;99.90
6421;DHT22;3243;50.958;7.012;2023-03-14T12:11:33;8.30;99.90
6421;DHT22;3243;50.958;7.012;2023-03-14T12:14:01;8.20;99.90
6421;DHT22;3243;50.958;7.012;2023-03-14T12:16:38;8.20;99.90
6421;DHT22;3243;50.958;7.012;2023-03-14T12:19:36;8.10;99.90
6421;DHT22;3243;50.958;7.012;2023-03-14T12:22:30;8.10;99.90
6421;DHT22;3243;50.958;7.012;2023-03-14T12:25:15;8.00;99.90
6421;DHT22;3243;50.958;7.012;2023-03-14T12:30:41;8.00;99.90
6421;DHT22;3243;50.958;7.012;2023-03-14T12:35:45;8.50;99.90
6421;DHT22;3243;50.958;7.012;2023-03-14T12:43:33;9.20;99.90
6421;DHT22;3243;50.958;7.012;2023-03-14T12:48:40;9.10;99.90
6421;DHT22;3243;50.958;7.012;2023-03-14T12:51:21;9.00;99.90
6421;DHT22;3243;50.958;7.012;2023-03-14T12:57:44;8.50;99.90
6421;DHT22;3243;50.958;7.012;2023-03-14T12:59:45;8.50;99.90
6421;DHT22;3243;50.958;7.012;2023-03-14T13:02:42;8.30;99.90
6421;DHT22;3243;50.958;7.012;2023-03-14T13:05:23;8.30;99.90
6421;DHT22;3243;50.958;7.012;2023-03-14T13:10:45;8.40;99.90
6421;DHT22;3243;50.958;7.012;2023-03-14T13:13:24;8.50;99.90
6421;DHT22;3243;50.958;7.012;2023-03-14T13:15:57;8.60;99.90
6421;DHT22;3243;50.958;7.012;2023-03-14T13:18:36;8.60;99.90
6421;DHT22;3243;50.958;7.012;2023-03-14T13:23:37;8.80;99.90
6421;DHT22;3243;50.958;7.012;2023-03-14T13:26:11;8.70;99.90
6421;DHT22;3243;50.958;7.012;2023-03-14T13:31:22;8.80;99.90
6421;DHT22;3243;50.958;7.012;2023-03-14T13:34:06;8.90;99.90
6421;DHT22;3243;50.958;7.012;2023-03-14T13:36:35;8.80;99.90
6421;DHT22;3243;50.958;7.012;2023-03-14T13:44:04;8.50;99.90
6421;DHT22;3243;50.958;7.012;2023-03-14T13:46:34;8.30;99.90
6421;DHT22;3243;50.958;7.012;2023-03-14T13:49:03;8.00;99.90
6421;DHT22;3243;50.958;7.012;2023-03-14T13:51:31;7.70;99.90
6421;DHT22;3243;50.958;7.012;2023-03-14T13:54:01;7.70;99.90
6421;DHT22;3243;50.958;7.012;2023-03-14T13:56:31;7.80;99.90
6421;DHT22;3243;50.958;7.012;2023-03-14T13:58:59;8.00;99.90
6421;DHT22;3243;50.958;7.012;2023-03-14T14:01:36;8.10;99.90
6421;DHT22;3243;50.958;7.012;2023-03-14T14:04:14;8.10;99.90
6421;DHT22;3243;50.958;7.012;2023-03-14T14:06:57;8.10;99.90
6421;DHT22;3243;50.958;7.012;2023-03-14T14:09:29;8.10;99.90
6421;DHT22;3243;50.958;7.012;2023-03-14T14:12:00;8.20;99.90
6421;DHT22;3243;50.958;7.012;2023-03-14T14:17:14;8.30;99.90
6421;DHT22;3243;50.958;7.012;2023-03-14T14:19:43;8.40;99.90
6421;DHT22;3243;50.958;7.012;2023-03-14T14:22:10;8.50;99.90
6421;DHT22;3243;50.958;7.012;2023-03-14T14:24:38;8.50;99.90
6421;DHT22;3243;50.958;7.012;2023-03-14T14:27:23;8.40;99.90
6421;DHT22;3243;50.958;7.012;2023-03-14T14:32:37;8.00;99.90
6421;DHT22;3243;50.958;7.012;2023-03-14T14:35:04;7.90;99.90
6421;DHT22;3243;50.958;7.012;2023-03-14T14:37:43;7.90;99.90
6421;DHT22;3243;50.958;7.012;2023-03-14T14:40:18;8.00;99.90
6421;DHT22;3243;50.958;7.012;2023-03-14T14:42:46;8.10;99.90
6421;DHT22;3243;50.958;7.012;2023-03-14T14:45:18;8.10;99.90
6421;DHT22;3243;50.958;7.012;2023-03-14T14:48:06;8.20;99.90
6421;DHT22;3243;50.958;7.012;2023-03-14T14:50:52;8.20;99.90
6421;DHT22;3243;50.958;7.012;2023-03-14T14:56:07;8.30;99.90
6421;DHT22;3243;50.958;7.012;2023-03-14T14:58:35;8.40;99.90
6421;DHT22;3243;50.958;7.012;2023-03-14T15:03:39;8.50;99.90
6421;DHT22;3243;50.958;7.012;2023-03-14T15:06:08;8.70;99.90
6421;DHT22;3243;50.958;7.012;2023-03-14T15:08:37;8.70;99.90
6421;DHT22;3243;50.958;7.012;2023-03-14T15:11:04;8.80;99.90
6421;DHT22;3243;50.958;7.012;2023-03-14T15:13:31;8.70;99.90
6421;DHT22;3243;50.958;7.012;2023-03-14T15:15:58;8.80;99.90
6421;DHT22;3243;50.958;7.012;2023-03-14T15:18:27;8.80;99.90
6421;DHT22;3243;50.958;7.012;2023-03-14T15:20:56;8.90;99.90
6421;DHT22;3243;50.958;7.012;2023-03-14T15:23:23;8.80;99.90
6421;DHT22;3243;50.958;7.012;2023-03-14T15:25:50;8.70;99.90
6421;DHT22;3243;50.958;7.012;2023-03-14T15:28:26;8.70;99.90
6421;DHT22;3243;50.958;7.012;2023-03-14T15:30:56;8.70;99.90
6421;DHT22;3243;50.958;7.012;2023-03-14T15:33:24;8.70;99.90
6421;DHT22;3243;50.958;7.012;2023-03-14T15:35:52;8.80;99.90
6421;DHT22;3243;50.958;7.012;2023-03-14T15:38:21;8.70;99.90
6421;DHT22;3243;50.958;7.012;2023-03-14T15:40:50;8.80;99.90
6421;DHT22;3243;50.958;7.012;2023-03-14T15:43:17;8.80;99.90
6421;DHT22;3243;50.958;7.012;2023-03-14T15:45:45;8.80;99.90
6421;DHT22;3243;50.958;7.012;2023-03-14T15:48:20;8.70;99.90
6421;DHT22;3243;50.958;7.012;2023-03-14T15:50:47;8.80;99.90
6421;DHT22;3243;50.958;7.012;2023-03-14T15:53:14;8.70;99.90
6421;DHT22;3243;50.958;7.012;2023-03-14T15:55:41;8.80;99.90
6421;DHT22;3243;50.958;7.012;2023-03-14T15:58:16;8.70;99.90
6421;DHT22;3243;50.958;7.012;2023-03-14T16:00:46;11.60;99.90
6421;DHT22;3243;50.958;7.012;2023-03-14T16:03:13;8.70;99.90
6421;DHT22;3243;50.958;7.012;2023-03-14T16:05:40;8.60;99.90
6421;DHT22;3243;50.958;7.012;2023-03-14T16:08:07;8.60;99.90
6421;DHT22;3243;50.958;7.012;2023-03-14T16:10:34;8.60;99.90
6421;DHT22;3243;50.958;7.012;2023-03-14T16:13:02;8.70;99.90
6421;DHT22;3243;50.958;7.012;2023-03-14T16:15:29;8.60;99.90
6421;DHT22;3243;50.958;7.012;2023-03-14T16:17:56;8.60;99.90
6421;DHT22;3243;50.958;7.012;2023-03-14T16:20:23;8.60;99.90
6421;DHT22;3243;50.958;7.012;2023-03-14T16:22:50;8.60;99.90
6421;DHT22;3243;50.958;7.012;2023-03-14T16:25:16;8.60;99.90
6421;DHT22;3243;50.958;7.012;2023-03-14T16:27:44;8.40;99.90
6421;DHT22;3243;50.958;7.012;2023-03-14T16:30:11;8.50;99.90
6421;DHT22;3243;50.958;7.012;2023-03-14T16:32:41;8.40;99.90
6421;DHT22;3243;50.958;7.012;2023-03-14T16:35:08;8.40;99.90
6421;DHT22;3243;50.958;7.012;2023-03-14T16:37:35;8.40;99.90
6421;DHT22;3243;50.958;7.012;2023-03-14T16:40:01;8.30;99.90
6421;DHT22;3243;50.958;7.012;2023-03-14T16:42:39;8.30;99.90
6421;DHT22;3243;50.958;7.012;2023-03-14T16:45:25;8.30;99.90
6421;DHT22;3243;50.958;7.012;2023-03-14T16:47:52;8.30;99.90
6421;DHT22;3243;50.958;7.012;2023-03-14T16:50:19;8.30;99.90
6421;DHT22;3243;50.958;7.012;2023-03-14T16:52:45;8.20;99.90
6421;DHT22;3243;50.958;7.012;2023-03-14T16:55:15;8.20;99.90
6421;DHT22;3243;50.958;7.012;2023-03-14T16:57:41;8.10;99.90
6421;DHT22;3243;50.958;7.012;2023-03-14T17:00:09;8.10;99.90
6421;DHT22;3243;50.958;7.012;2023-03-14T17:02:37;8.00;99.90
6421;DHT22;3243;50.958;7.012;2023-03-14T17:05:04;7.90;99.90
6421;DHT22;3243;50.958;7.012;2023-03-14T17:07:31;7.90;99.90
6421;DHT22;3243;50.958;7.012;2023-03-14T17:09:58;8.00;99.90
6421;DHT22;3243;50.958;7.012;2023-03-14T17:12:24;7.90;99.90
6421;DHT22;3243;50.958;7.012;2023-03-14T17:14:51;7.80;99.90
6421;DHT22;3243;50.958;7.012;2023-03-14T17:17:19;7.80;99.90
6421;DHT22;3243;50.958;7.012;2023-03-14T17:19:46;7.70;99.90
6421;DHT22;3243;50.958;7.012;2023-03-14T17:22:12;7.70;99.90
6421;DHT22;3243;50.958;7.012;2023-03-14T17:24:49;7.60;99.90
6421;DHT22;3243;50.958;7.012;2023-03-14T17:27:16;7.60;99.90
6421;DHT22;3243;50.958;7.012;2023-03-14T17:29:46;7.50;99.90
6421;DHT22;3243;50.958;7.012;2023-03-14T17:32:14;7.50;99.90
6421;DHT22;3243;50.958;7.012;2023-03-14T17:34:42;7.40;99.90
6421;DHT22;3243;50.958;7.012;2023-03-14T17:37:09;7.40;99.90
6421;DHT22;3243;50.958;7.012;2023-03-14T17:39:36;7.40;99.90
6421;DHT22;3243;50.958;7.012;2023-03-14T17:42:04;7.40;99.90